Time;durP1;ratioP1;P1;durP2;ratioP2;P2;SDS_P1;SDS_P2;PMS_P1;PMS_P2;Temp;Humidity;BMP_temperature;BMP_pressure;BME280_temperature;BME280_humidity;BME280_pressure;Samples;Min_cycle;Max_cycle;Signal;HPM_P1;HPM_P2
2023/09/07 00:00:47;;;;;;;9.27;7.93;;;;;;;19.79;100.00;65061.22;5051961;28;20193;-54
2023/09/07 00:03:15;;;;;;;10.20;7.93;;;;;;;19.73;100.00;65057.16;5051618;28;20575;-54
2023/09/07 00:05:41;;;;;;;9.80;8.65;;;;;;;19.68;100.00;65049.06;5052150;28;20205;-55
2023/09/07 00:08:07;;;;;;;8.88;7.97;;;;;;;19.67;100.00;65045.41;5051939;28;20569;-56
2023/09/07 00:10:35;;;;;;;11.48;8.75;;;;;;;19.72;100.00;65053.47;5034031;28;20201;-56
2023/09/07 00:13:04;;;;;;;12.43;8.20;;;;;;;19.68;100.00;65051.06;5051574;28;20251;-60
2023/09/07 00:15:35;;;;;;;9.73;7.72;;;;;;;19.55;100.00;65034.72;5051654;28;20209;-56
2023/09/07 00:18:00;;;;;;;12.10;8.00;;;;;;;19.52;100.00;65028.28;5051699;28;20287;-54
2023/09/07 00:20:26;;;;;;;13.18;8.05;;;;;;;19.66;100.00;65044.28;5051698;28;20699;-55
2023/09/07 00:22:51;;;;;;;9.48;8.45;;;;;;;19.56;100.00;65035.81;5033719;28;20562;-55
2023/09/07 00:25:17;;;;;;;11.23;8.48;;;;;;;19.54;100.00;65033.59;5033603;28;20213;-55
2023/09/07 00:27:42;;;;;;;10.00;8.48;;;;;;;19.51;100.00;65030.31;5051640;28;20216;-55
2023/09/07 00:30:09;;;;;;;13.38;8.43;;;;;;;19.50;100.00;65026.06;5051607;28;20197;-53
2023/09/07 00:32:37;;;;;;;12.52;8.63;;;;;;;19.35;100.00;65012.06;5051464;28;20245;-53
2023/09/07 00:35:03;;;;;;;11.38;8.25;;;;;;;19.29;100.00;65005.97;5051527;28;20201;-54
2023/09/07 00:37:28;;;;;;;9.15;8.00;;;;;;;19.36;100.00;65010.63;5051204;28;20232;-54
2023/09/07 00:39:54;;;;;;;9.88;8.57;;;;;;;19.32;100.00;65006.72;5051407;28;20197;-53
2023/09/07 00:42:19;;;;;;;12.23;8.40;;;;;;;19.29;100.00;65005.97;5051418;28;20520;-54
2023/09/07 00:44:45;;;;;;;12.98;8.57;;;;;;;19.33;100.00;65010.44;5033280;28;20193;-54
2023/09/07 00:47:11;;;;;;;9.93;8.32;;;;;;;19.36;100.00;65013.16;5051447;28;20687;-54
2023/09/07 00:49:37;;;;;;;10.13;9.10;;;;;;;19.31;100.00;65008.19;5051194;28;20193;-54
2023/09/07 00:52:05;;;;;;;9.50;8.48;;;;;;;19.37;100.00;65014.84;5050851;28;20282;-54
2023/09/07 00:54:31;;;;;;;10.20;9.15;;;;;;;19.31;100.00;65007.63;5051054;28;20198;-54
2023/09/07 00:56:57;;;;;;;10.63;8.23;;;;;;;19.41;100.00;65019.25;5050819;28;20222;-55
2023/09/07 00:59:23;;;;;;;10.38;8.30;;;;;;;19.46;100.00;65026.75;5051047;28;20254;-55
2023/09/07 01:01:49;;;;;;;15.55;9.75;;;;;;;19.44;100.00;65022.56;5032884;28;20217;-57
2023/09/07 01:04:14;;;;;;;12.07;9.32;;;;;;;19.50;100.00;65029.19;5032976;28;20178;-54
2023/09/07 01:06:47;;;;;;;9.98;8.98;;;;;;;19.47;100.00;65025.31;5050908;28;20220;-54
2023/09/07 01:09:21;;;;;;;15.40;9.57;;;;;;;19.44;100.00;65020.00;5050955;28;20201;-54
2023/09/07 01:11:47;;;;;;;10.30;9.00;;;;;;;19.48;100.00;65024.41;5050662;28;20776;-54
2023/09/07 01:14:13;;;;;;;9.60;8.48;;;;;;;19.46;100.00;65026.75;5050880;28;20205;-55
2023/09/07 01:16:39;;;;;;;13.85;9.23;;;;;;;19.53;100.00;65032.50;5050520;28;20684;-54
2023/09/07 01:19:09;;;;;;;10.02;9.00;;;;;;;19.45;100.00;65023.69;5049259;28;20202;-54
2023/09/07 01:21:36;;;;;;;12.85;9.43;;;;;;;19.38;100.00;65015.38;5050397;28;20225;-54
2023/09/07 01:24:08;;;;;;;10.55;9.32;;;;;;;19.47;100.00;65025.88;5050559;28;20183;-55
2023/09/07 01:26:34;;;;;;;10.55;9.43;;;;;;;19.41;100.00;65021.25;5050390;28;20220;-57
2023/09/07 01:29:01;;;;;;;12.80;9.55;;;;;;;19.42;100.00;65019.78;5050318;28;20213;-58
2023/09/07 01:31:26;;;;;;;11.13;9.60;;;;;;;19.42;100.00;65022.91;5050198;28;20229;-53
2023/09/07 01:33:52;;;;;;;11.10;9.88;;;;;;;19.35;100.00;65009.53;5050346;28;20266;-54
2023/09/07 01:36:17;;;;;;;11.80;10.30;;;;;;;19.38;100.00;65015.94;5050267;28;20588;-55
2023/09/07 01:38:43;;;;;;;12.95;10.35;;;;;;;19.35;100.00;65012.63;5050372;28;20240;-54
2023/09/07 01:41:08;;;;;;;12.70;10.50;;;;;;;19.33;100.00;65010.44;5050222;28;20201;-54
2023/09/07 01:43:35;;;;;;;14.13;10.35;;;;;;;19.36;100.00;65011.16;5050236;28;20588;-54
2023/09/07 01:46:00;;;;;;;11.13;9.63;;;;;;;19.31;100.00;65007.63;5050290;28;20205;-55
2023/09/07 01:48:26;;;;;;;12.75;10.23;;;;;;;19.29;100.00;65005.97;5050075;28;20193;-55
2023/09/07 01:50:54;;;;;;;11.68;10.48;;;;;;;19.27;100.00;65003.75;5049885;28;20208;-54
2023/09/07 01:53:20;;;;;;;10.65;9.52;;;;;;;19.38;100.00;65017.94;5050604;28;20304;-55
2023/09/07 01:55:47;;;;;;;14.07;10.90;;;;;;;19.36;100.00;65011.16;5048793;28;20232;-55
2023/09/07 01:58:13;;;;;;;15.15;9.55;;;;;;;19.38;100.00;65015.38;5050310;28;20217;-56
2023/09/07 02:00:38;;;;;;;11.95;10.00;;;;;;;19.40;100.00;65015.59;5032003;28;20208;-56
2023/09/07 02:03:05;;;;;;;14.60;10.68;;;;;;;19.40;100.00;65018.16;5048737;28;20773;-56
2023/09/07 02:05:32;;;;;;;12.77;9.98;;;;;;;19.44;100.00;65020.00;5050067;28;20227;-55
2023/09/07 02:07:58;;;;;;;11.50;10.40;;;;;;;19.47;100.00;65025.31;5049906;28;20245;-54
2023/09/07 02:10:24;;;;;;;18.30;10.73;;;;;;;19.40;100.00;65018.16;5015553;28;20292;-55
2023/09/07 02:12:49;;;;;;;12.82;10.05;;;;;;;19.38;100.00;65013.38;5052243;28;20231;-54
2023/09/07 02:15:15;;;;;;;12.77;10.57;;;;;;;19.42;100.00;65022.91;5053379;28;20555;-53
2023/09/07 02:17:44;;;;;;;14.63;10.02;;;;;;;19.41;100.00;65021.81;5053356;28;20266;-54
2023/09/07 02:20:14;;;;;;;11.75;10.50;;;;;;;19.47;100.00;65025.31;5053365;28;20272;-54
2023/09/07 02:22:39;;;;;;;13.38;11.02;;;;;;;19.54;100.00;65033.59;5074647;22;20228;-54
2023/09/07 02:25:05;;;;;;;13.30;10.65;;;;;;;19.44;100.00;65020.00;5073356;28;20198;-54
2023/09/07 02:27:33;;;;;;;14.50;11.05;;;;;;;19.40;100.00;65018.16;5058944;28;20216;-53
2023/09/07 02:29:58;;;;;;;13.23;10.30;;;;;;;19.33;100.00;65010.44;5053279;28;20189;-54
2023/09/07 02:32:24;;;;;;;12.77;11.32;;;;;;;19.37;100.00;65011.72;5053048;28;20224;-56
2023/09/07 02:34:49;;;;;;;12.23;10.95;;;;;;;19.31;100.00;65008.19;5053493;28;20211;-54
2023/09/07 02:37:16;;;;;;;14.18;10.25;;;;;;;19.34;100.00;65008.97;5053087;28;20201;-55
2023/09/07 02:39:42;;;;;;;18.95;12.10;;;;;;;19.40;100.00;65020.69;5053020;28;20201;-55
2023/09/07 02:42:07;;;;;;;13.35;11.48;;;;;;;19.38;100.00;65013.38;5053503;28;20220;-55
2023/09/07 02:44:33;;;;;;;15.63;11.70;;;;;;;19.32;100.00;65011.84;5051755;28;20567;-54
2023/09/07 02:46:58;;;;;;;16.38;12.57;;;;;;;19.32;100.00;65009.28;5053185;28;20201;-54
2023/09/07 02:49:24;;;;;;;16.92;12.23;;;;;;;19.36;100.00;65013.72;5053023;28;20568;-56
2023/09/07 02:51:49;;;;;;;16.38;12.77;;;;;;;19.39;100.00;65014.50;5034988;28;20654;-54
2023/09/07 02:54:15;;;;;;;15.32;11.68;;;;;;;19.43;100.00;65021.47;5052787;28;20734;-55
2023/09/07 02:56:40;;;;;;;14.05;12.13;;;;;;;19.33;100.00;65007.88;5053004;28;20209;-55
2023/09/07 02:59:06;;;;;;;14.73;11.35;;;;;;;19.32;100.00;65008.72;5052770;28;20209;-55
2023/09/07 03:01:32;;;;;;;13.88;12.15;;;;;;;19.34;100.00;65010.97;5064557;22;20240;-57
2023/09/07 03:03:57;;;;;;;14.65;11.55;;;;;;;19.37;100.00;65014.28;5072651;28;20204;-55
2023/09/07 03:06:22;;;;;;;14.27;11.50;;;;;;;19.32;100.00;65009.28;5068096;28;20213;-57
2023/09/07 03:08:48;;;;;;;17.67;12.98;;;;;;;19.40;100.00;65015.59;5052605;28;20691;-54
2023/09/07 03:11:14;;;;;;;14.50;12.60;;;;;;;19.42;100.00;65020.34;5052401;28;20201;-55
2023/09/07 03:13:40;;;;;;;16.13;13.13;;;;;;;19.24;100.00;64998.47;5034609;28;20220;-58
2023/09/07 03:16:05;;;;;;;13.57;12.15;;;;;;;19.12;100.00;64985.22;5052808;28;20715;-61
2023/09/07 03:18:32;;;;;;;18.45;12.50;;;;;;;19.15;100.00;64991.06;5052691;28;20676;-55
2023/09/07 03:21:00;;;;;;;16.83;12.93;;;;;;;19.15;100.00;64990.50;5052703;28;20232;-54
2023/09/07 03:24:05;;;;;;;19.45;14.05;;;;;;;19.04;100.00;64980.94;5051240;28;20213;-59
2023/09/07 03:26:31;;;;;;;17.38;13.43;;;;;;;19.03;100.00;64974.72;5049421;28;20228;-55
2023/09/07 03:28:57;;;;;;;15.65;13.90;;;;;;;18.95;100.00;64966.44;5052580;28;20201;-55
2023/09/07 03:31:23;;;;;;;15.55;13.90;;;;;;;19.01;100.00;64975.06;5034174;28;20213;-54
2023/09/07 03:33:49;;;;;;;16.85;14.88;;;;;;;19.05;100.00;64982.59;5034373;28;20205;-55
2023/09/07 03:36:15;;;;;;;17.38;15.02;;;;;;;19.07;100.00;64982.25;5052335;28;20209;-55
2023/09/07 03:38:42;;;;;;;16.02;14.32;;;;;;;18.91;100.00;64964.59;5052361;28;20209;-57
2023/09/07 03:41:08;;;;;;;18.92;14.50;;;;;;;18.95;100.00;64968.44;5052258;28;20214;-55
2023/09/07 03:43:33;;;;;;;21.05;14.82;;;;;;;18.87;100.00;64960.16;5052341;28;20567;-55
2023/09/07 03:45:59;;;;;;;17.70;15.00;;;;;;;18.92;100.00;64965.69;5051942;28;20209;-55
2023/09/07 03:48:24;;;;;;;18.50;15.38;;;;;;;18.96;100.00;64969.56;5052282;28;20189;-55
2023/09/07 03:50:50;;;;;;;19.67;16.05;;;;;;;18.88;100.00;64963.28;5051615;28;20209;-54
2023/09/07 03:53:16;;;;;;;29.10;17.20;;;;;;;18.89;100.00;64959.28;5052113;28;20215;-58
2023/09/07 03:55:42;;;;;;;29.25;23.00;;;;;;;18.83;100.00;64955.19;5052055;28;20202;-56
2023/09/07 03:58:10;;;;;;;19.25;16.15;;;;;;;18.95;100.00;64968.44;5051742;28;20722;-56
2023/09/07 04:00:39;;;;;;;24.92;19.40;;;;;;;18.89;100.00;64961.81;5033930;28;20267;-56
2023/09/07 04:03:04;;;;;;;24.35;18.77;;;;;;;18.82;100.00;64954.66;5051949;28;20206;-55
2023/09/07 04:05:30;;;;;;;24.77;18.15;;;;;;;18.91;100.00;64964.59;5051903;28;20656;-56
2023/09/07 04:07:55;;;;;;;27.83;21.58;;;;;;;18.88;100.00;64963.84;5051676;28;20247;-56
2023/09/07 04:10:20;;;;;;;27.08;22.48;;;;;;;18.86;100.00;64958.53;5033774;28;20205;-54
2023/09/07 04:12:46;;;;;;;19.58;16.90;;;;;;;18.91;100.00;64964.03;5051431;28;20209;-54
2023/09/07 04:15:11;;;;;;;23.30;16.73;;;;;;;18.95;100.00;64968.44;5051529;28;20573;-57
2023/09/07 04:17:44;;;;;;;20.45;16.67;;;;;;;19.04;100.00;64978.38;5017224;28;20209;-54
2023/09/07 04:20:12;;;;;;;22.58;16.25;;;;;;;19.05;100.00;64979.47;5051493;28;20209;-56
2023/09/07 04:22:40;;;;;;;17.83;15.93;;;;;;;19.02;100.00;64974.19;5051682;28;20224;-55
2023/09/07 04:25:06;;;;;;;24.75;18.65;;;;;;;19.00;100.00;64974.53;5051707;28;20277;-57
2023/09/07 04:27:31;;;;;;;22.13;15.50;;;;;;;19.08;100.00;64980.81;5033769;28;20367;-53
2023/09/07 04:29:57;;;;;;;19.20;15.35;;;;;;;19.03;100.00;64977.28;5051610;28;20247;-53
2023/09/07 04:32:22;;;;;;;20.25;16.98;;;;;;;19.01;100.00;64978.19;5051507;28;20223;-55
2023/09/07 04:34:53;;;;;;;21.77;18.17;;;;;;;18.96;100.00;64967.00;5050854;28;20201;-55
2023/09/07 04:37:19;;;;;;;20.17;16.40;;;;;;;19.03;100.00;64977.81;5051459;28;20237;-54
2023/09/07 04:39:45;;;;;;;17.70;15.70;;;;;;;18.91;100.00;64962.03;5051318;28;20189;-54
2023/09/07 04:42:10;;;;;;;21.65;15.55;;;;;;;18.95;100.00;64969.00;5051186;28;20777;-55
2023/09/07 04:44:36;;;;;;;17.70;15.32;;;;;;;18.99;100.00;64970.84;5051187;28;20193;-54
2023/09/07 04:47:01;;;;;;;17.25;14.10;;;;;;;19.22;100.00;65000.81;5051436;28;20331;-54
2023/09/07 04:49:27;;;;;;;25.48;15.90;;;;;;;19.36;100.00;65011.16;5049860;28;20198;-54
2023/09/07 04:51:54;;;;;;;22.92;16.17;;;;;;;19.44;100.00;65022.00;5051382;28;20217;-55
2023/09/07 04:54:19;;;;;;;22.05;15.88;;;;;;;19.40;100.00;65018.16;5051138;28;20220;-53
2023/09/07 04:56:45;;;;;;;19.17;14.02;;;;;;;19.40;100.00;65018.16;5051112;28;20766;-54
2023/09/07 04:59:44;;;;;;;21.90;13.40;;;;;;;19.50;100.00;65026.63;5050948;28;20628;-53
2023/09/07 05:02:45;;;;;;;18.83;15.07;;;;;;;19.54;100.00;65033.59;5051150;28;20244;-54
2023/09/07 05:05:11;;;;;;;19.65;12.90;;;;;;;19.73;100.00;65054.59;5050862;28;20245;-53
2023/09/07 05:07:36;;;;;;;25.10;12.75;;;;;;;20.31;100.00;65115.00;5051067;28;20638;-55
2023/09/07 05:10:02;;;;;;;20.33;13.85;;;;;;;20.58;100.00;65144.84;5050917;28;20262;-53
2023/09/07 05:12:28;;;;;;;16.75;13.82;;;;;;;20.59;100.00;65145.94;5050951;28;20213;-53
2023/09/07 05:14:54;;;;;;;17.02;13.25;;;;;;;20.84;100.00;65176.16;5049425;28;20590;-53
2023/09/07 05:17:19;;;;;;;19.60;13.65;;;;;;;20.77;100.00;65166.41;5050824;28;20205;-53
2023/09/07 05:19:45;;;;;;;15.73;12.43;;;;;;;20.80;100.00;65169.16;5050677;28;20659;-54
2023/09/07 05:22:11;;;;;;;15.43;11.88;;;;;;;20.85;100.00;65177.81;5050628;28;20213;-52
2023/09/07 05:24:38;;;;;;;19.88;12.90;;;;;;;21.06;100.00;65197.94;5032924;28;20197;-53
2023/09/07 05:27:05;;;;;;;23.40;14.10;;;;;;;20.88;100.00;65178.00;5050443;28;20209;-57
2023/09/07 05:29:30;;;;;;;21.38;14.80;;;;;;;20.77;100.00;65168.41;5050428;28;20693;-57
2023/09/07 05:31:55;;;;;;;16.00;13.65;;;;;;;20.50;100.00;65136.53;5050694;28;20217;-54
2023/09/07 05:34:21;;;;;;;17.77;13.38;;;;;;;20.33;100.00;65119.78;5050407;28;20194;-53
2023/09/07 05:36:48;;;;;;;18.23;13.85;;;;;;;20.17;100.00;65102.06;5050669;28;20301;-52
2023/09/07 05:39:14;;;;;;;15.68;13.13;;;;;;;19.90;100.00;65070.78;5050663;28;20312;-51
2023/09/07 05:41:39;;;;;;;19.17;13.95;;;;;;;19.85;100.00;65065.28;5050700;28;20268;-52
2023/09/07 05:44:05;;;;;;;19.23;13.68;;;;;;;19.81;100.00;65063.44;5050491;28;20201;-54
2023/09/07 05:46:37;;;;;;;15.93;14.02;;;;;;;19.75;100.00;65053.69;5049351;28;20638;-51
2023/09/07 05:49:03;;;;;;;18.98;14.27;;;;;;;19.83;100.00;65062.53;5050085;28;20750;-52
2023/09/07 05:51:28;;;;;;;17.70;13.65;;;;;;;19.67;100.00;65047.97;5049531;28;20244;-52
2023/09/07 05:53:55;;;;;;;16.27;13.07;;;;;;;19.70;100.00;65051.28;5047960;28;20201;-51
2023/09/07 05:56:20;;;;;;;16.40;13.23;;;;;;;19.62;100.00;65039.88;5049811;28;20213;-51
2023/09/07 05:58:46;;;;;;;21.88;13.95;;;;;;;19.54;100.00;65031.03;5048825;28;20222;-51
2023/09/07 06:01:11;;;;;;;15.20;12.48;;;;;;;19.61;100.00;65041.34;5049983;28;20221;-55
2023/09/07 06:03:39;;;;;;;16.75;12.52;;;;;;;19.84;100.00;65064.16;5049927;28;20197;-51
2023/09/07 06:06:05;;;;;;;18.55;13.32;;;;;;;19.74;100.00;65052.56;5050382;28;20209;-51
2023/09/07 06:08:30;;;;;;;17.40;13.07;;;;;;;19.75;100.00;65056.25;5050344;28;20240;-51
2023/09/07 06:10:55;;;;;;;15.05;13.45;;;;;;;19.75;100.00;65053.69;5032447;28;20196;-52
2023/09/07 06:13:21;;;;;;;17.75;13.38;;;;;;;19.82;100.00;65064.53;5049877;28;20213;-51
2023/09/07 06:15:46;;;;;;;15.93;12.38;;;;;;;20.04;100.00;65086.25;5050001;28;20597;-54
2023/09/07 06:18:12;;;;;;;16.63;12.63;;;;;;;20.47;100.00;65132.69;5049733;28;20551;-52
2023/09/07 06:20:37;;;;;;;15.45;12.85;;;;;;;20.73;100.00;65164.53;5049972;28;20228;-52
2023/09/07 06:23:03;;;;;;;21.20;12.65;;;;;;;20.73;100.00;65166.53;5049901;28;20647;-52
2023/09/07 06:25:29;;;;;;;15.40;11.38;;;;;;;20.78;100.00;65166.94;5049843;28;20284;-55
2023/09/07 06:27:55;;;;;;;12.90;10.80;;;;;;;20.89;100.00;65179.09;5049774;28;20279;-52
2023/09/07 06:30:20;;;;;;;18.05;11.82;;;;;;;21.13;100.00;65208.22;5050000;28;20671;-51
2023/09/07 06:32:47;;;;;;;15.52;11.65;;;;;;;21.24;100.00;65217.84;5049688;28;20213;-52
2023/09/07 06:35:12;;;;;;;15.05;10.85;;;;;;;21.15;100.00;65205.31;5049534;28;20771;-54
2023/09/07 06:37:40;;;;;;;14.48;11.77;;;;;;;21.14;100.00;65206.78;5049990;28;20224;-55
2023/09/07 06:40:07;;;;;;;13.70;10.90;;;;;;;21.09;100.00;65203.78;5049836;28;20205;-55
2023/09/07 06:42:32;;;;;;;13.05;9.75;;;;;;;21.07;100.00;65199.03;5049503;28;20223;-58
2023/09/07 06:44:58;;;;;;;13.10;9.23;;;;;;;21.13;100.00;65205.66;5049670;28;20584;-55
2023/09/07 06:47:24;;;;;;;18.33;13.52;;;;;;;21.09;100.00;65201.22;5049690;28;20691;-55
2023/09/07 06:49:49;;;;;;;11.60;9.18;;;;;;;21.13;100.00;65208.22;5049627;28;20197;-55
2023/09/07 06:52:15;;;;;;;13.13;9.82;;;;;;;21.22;100.00;65218.19;5049101;28;20613;-54
2023/09/07 06:54:41;;;;;;;12.15;9.55;;;;;;;21.31;100.00;65227.59;5048058;28;20206;-55
2023/09/07 06:57:09;;;;;;;14.82;10.70;;;;;;;21.15;100.00;65207.34;5049374;28;20260;-55
2023/09/07 06:59:35;;;;;;;12.68;9.43;;;;;;;21.25;100.00;65218.94;5035044;28;20297;-60
2023/09/07 07:02:01;;;;;;;12.82;10.75;;;;;;;21.39;100.00;65236.44;5053254;28;20284;-56
2023/09/07 07:04:26;;;;;;;13.85;10.38;;;;;;;21.59;100.00;65256.00;5052674;28;20679;-54
2023/09/07 07:06:52;;;;;;;14.75;9.93;;;;;;;21.77;100.00;65277.91;5053089;28;20652;-55
2023/09/07 07:09:17;;;;;;;11.30;9.05;;;;;;;21.81;100.00;65279.78;5052787;28;20649;-55
2023/09/07 07:11:43;;;;;;;12.30;9.40;;;;;;;22.02;100.00;65303.03;5052763;28;20213;-55
2023/09/07 07:14:09;;;;;;;12.50;9.02;;;;;;;22.09;97.86;65311.34;5052454;28;20209;-55
2023/09/07 07:16:34;;;;;;;12.30;9.02;;;;;;;21.95;98.95;65297.84;5052682;28;20214;-55
2023/09/07 07:19:00;;;;;;;12.35;9.55;;;;;;;21.90;100.00;65290.31;5052698;28;20632;-55
2023/09/07 07:21:26;;;;;;;11.95;9.07;;;;;;;21.90;97.14;65290.31;5052817;28;20421;-56
2023/09/07 07:23:51;;;;;;;11.07;9.32;;;;;;;21.69;96.58;65267.59;5052364;28;20233;-59
2023/09/07 07:26:17;;;;;;;15.82;9.70;;;;;;;21.57;98.98;65256.88;5034550;28;20681;-54
2023/09/07 07:28:43;;;;;;;13.48;8.65;;;;;;;21.59;100.00;65256.53;5052326;28;20208;-55
2023/09/07 07:31:10;;;;;;;13.07;8.25;;;;;;;21.65;97.78;65260.06;5052210;28;20209;-54
2023/09/07 07:33:36;;;;;;;12.93;7.82;;;;;;;21.58;97.34;65260.56;5052244;28;20241;-54
2023/09/07 07:36:03;;;;;;;11.13;8.10;;;;;;;21.64;93.73;65262.06;5052221;28;20640;-56
2023/09/07 07:38:29;;;;;;;12.30;8.20;;;;;;;21.62;100.00;65262.44;5052235;28;20335;-56
2023/09/07 07:40:55;;;;;;;12.38;9.00;;;;;;;21.71;97.87;65269.81;5052050;28;20633;-55
2023/09/07 07:43:21;;;;;;;11.30;8.25;;;;;;;21.71;100.00;65269.81;5052026;28;20710;-54
2023/09/07 07:45:46;;;;;;;12.60;8.90;;;;;;;21.73;92.90;65272.00;5052249;28;20281;-53
2023/09/07 07:48:13;;;;;;;8.68;7.20;;;;;;;21.74;92.59;65273.13;5051949;28;20592;-55
2023/09/07 07:50:39;;;;;;;13.23;8.80;;;;;;;21.73;93.71;65269.44;5052143;28;20201;-61
2023/09/07 07:53:06;;;;;;;9.77;7.70;;;;;;;21.80;96.57;65281.22;5051943;28;20221;-54
2023/09/07 07:55:38;;;;;;;10.20;8.00;;;;;;;21.85;96.12;65284.22;5052025;28;20298;-54
2023/09/07 07:58:06;;;;;;;10.30;7.82;;;;;;;21.84;94.67;65288.22;5034376;28;20218;-55
2023/09/07 08:00:31;;;;;;;14.73;8.23;;;;;;;21.75;94.27;65273.69;5052008;28;20201;-55
2023/09/07 08:02:56;;;;;;;8.50;7.60;;;;;;;21.88;94.52;65287.53;5051916;28;20809;-55
2023/09/07 08:05:22;;;;;;;12.38;8.15;;;;;;;21.94;96.51;65294.19;5051808;28;20162;-55
2023/09/07 08:07:47;;;;;;;9.80;8.30;;;;;;;21.99;97.74;65300.28;5051766;28;20284;-55
2023/09/07 08:10:13;;;;;;;10.98;8.30;;;;;;;22.04;97.64;65305.78;5051004;28;20206;-57
2023/09/07 08:12:38;;;;;;;12.23;9.07;;;;;;;21.97;90.99;65298.06;5051447;28;20221;-54
2023/09/07 08:15:04;;;;;;;11.40;8.68;;;;;;;22.05;91.34;65308.91;5051902;28;20284;-55
2023/09/07 08:17:30;;;;;;;9.88;8.55;;;;;;;22.09;96.39;65310.78;5051528;28;20731;-56
2023/09/07 08:19:56;;;;;;;11.80;7.95;;;;;;;22.16;100.00;65319.06;5051775;28;20247;-54
2023/09/07 08:22:22;;;;;;;10.50;8.07;;;;;;;22.37;100.00;65342.31;5049982;28;20218;-55
2023/09/07 08:24:48;;;;;;;9.00;7.35;;;;;;;22.58;94.76;65364.50;5051631;28;20208;-54
2023/09/07 08:27:18;;;;;;;10.23;7.07;;;;;;;22.74;98.28;65382.19;5051499;28;20598;-55
2023/09/07 08:29:47;;;;;;;10.48;7.93;;;;;;;22.88;87.14;65395.69;5050235;28;20198;-55
2023/09/07 08:32:14;;;;;;;11.05;7.50;;;;;;;22.91;89.95;65401.56;5052051;28;20232;-56
2023/09/07 08:34:41;;;;;;;11.45;8.30;;;;;;;22.94;85.40;65407.47;5033660;28;20178;-55
2023/09/07 08:37:10;;;;;;;9.70;7.45;;;;;;;22.82;94.32;65388.50;5051311;28;20217;-54
2023/09/07 08:39:36;;;;;;;10.32;6.97;;;;;;;22.82;79.31;65391.63;5034061;28;20216;-54
2023/09/07 08:42:02;;;;;;;8.18;6.75;;;;;;;22.70;86.36;65377.78;5051488;28;20232;-55
2023/09/07 08:44:29;;;;;;;11.05;6.95;;;;;;;22.71;91.17;65376.28;5051385;28;20593;-53
2023/09/07 08:46:56;;;;;;;8.50;6.25;;;;;;;22.64;79.77;65371.13;5051003;28;20205;-55
2023/09/07 08:49:23;;;;;;;9.40;6.80;;;;;;;22.61;87.01;65368.34;5051091;28;20201;-56
2023/09/07 08:51:51;;;;;;;7.65;6.75;;;;;;;22.62;89.87;65369.47;5051275;28;20248;-55
2023/09/07 08:54:19;;;;;;;8.80;6.90;;;;;;;22.68;80.72;65375.56;5051127;28;20671;-55
2023/09/07 08:56:45;;;;;;;9.10;6.72;;;;;;;22.84;91.20;65393.84;5065186;22;20248;-59
2023/09/07 08:59:11;;;;;;;6.97;6.20;;;;;;;22.93;89.38;65401.22;5071006;28;20193;-55
2023/09/07 09:01:37;;;;;;;6.95;6.22;;;;;;;22.98;89.79;65406.22;5064466;28;20217;-57
2023/09/07 09:04:03;;;;;;;9.13;6.50;;;;;;;23.30;86.54;65444.22;5050846;28;20676;-55
2023/09/07 09:06:28;;;;;;;9.48;6.43;;;;;;;23.50;76.39;65468.41;5050859;28;20216;-55
2023/09/07 09:08:57;;;;;;;8.13;6.00;;;;;;;23.80;76.98;65499.66;5050964;28;20197;-57
2023/09/07 09:11:24;;;;;;;8.98;6.50;;;;;;;24.04;73.72;65521.13;5051017;28;20217;-55
2023/09/07 09:13:52;;;;;;;7.43;6.35;;;;;;;24.32;73.18;65554.19;5050844;28;20201;-56
2023/09/07 09:16:18;;;;;;;7.95;6.22;;;;;;;24.50;73.12;65574.16;5050966;28;20209;-58
2023/09/07 09:18:52;;;;;;;10.32;6.30;;;;;;;24.78;69.54;65607.81;5050735;28;20208;-54
2023/09/07 09:21:22;;;;;;;11.13;5.68;;;;;;;25.00;67.27;65629.09;5050737;28;20209;-55
2023/09/07 09:23:51;;;;;;;10.20;5.53;;;;;;;24.93;65.79;65624.44;5050848;28;20228;-55
2023/09/07 09:26:17;;;;;;;9.15;5.63;;;;;;;24.96;62.08;65627.78;5050558;28;20206;-54
2023/09/07 09:28:47;;;;;;;6.57;5.68;;;;;;;24.74;62.65;65602.81;5050533;28;20225;-54
2023/09/07 09:31:14;;;;;;;7.07;5.60;;;;;;;24.52;65.30;65578.97;5050420;28;20217;-55
2023/09/07 09:33:41;;;;;;;6.45;5.72;;;;;;;24.70;63.83;65596.34;5050510;28;20213;-55
2023/09/07 09:36:07;;;;;;;11.70;5.72;;;;;;;24.70;68.90;65598.38;5032728;28;20209;-57
2023/09/07 09:38:34;;;;;;;7.63;5.63;;;;;;;24.75;66.62;65603.94;5050567;28;20253;-55
2023/09/07 09:41:00;;;;;;;7.18;5.78;;;;;;;24.72;63.33;65601.16;5050536;28;20216;-54
2023/09/07 09:43:26;;;;;;;8.45;5.63;;;;;;;24.72;61.55;65601.16;5050386;28;20202;-55
2023/09/07 09:45:53;;;;;;;8.13;5.55;;;;;;;24.75;62.00;65601.91;5032372;28;20532;-54
2023/09/07 09:48:22;;;;;;;7.38;5.13;;;;;;;24.53;62.54;65576.91;5050502;28;20181;-60
2023/09/07 09:50:49;;;;;;;5.40;4.90;;;;;;;24.67;66.82;65592.44;5032341;28;20221;-54
2023/09/07 09:53:20;;;;;;;8.73;5.22;;;;;;;24.40;65.49;65563.06;5031912;28;20275;-56
2023/09/07 09:55:52;;;;;;;6.82;5.45;;;;;;;24.59;67.46;65586.72;5050319;28;20212;-55
2023/09/07 09:58:18;;;;;;;7.30;5.03;;;;;;;24.80;63.76;65609.47;5031264;28;20197;-55
2023/09/07 10:00:55;;;;;;;5.88;5.18;;;;;;;24.47;68.91;65567.69;5049055;28;20271;-57
2023/09/07 10:03:30;;;;;;;13.20;5.57;;;;;;;24.54;67.29;65578.03;5050220;28;20686;-55
2023/09/07 10:05:55;;;;;;;7.63;5.53;;;;;;;24.28;69.24;65552.31;5050575;28;20723;-55
2023/09/07 10:08:22;;;;;;;7.10;5.28;;;;;;;24.33;66.71;65557.88;5050045;28;20203;-55
2023/09/07 10:10:53;;;;;;;6.97;6.22;;;;;;;24.22;65.24;65543.09;5050182;28;20285;-55
2023/09/07 10:13:29;;;;;;;6.22;5.50;;;;;;;24.23;62.57;65546.78;5032023;28;20263;-54
2023/09/07 10:16:19;;;;;;;6.90;5.60;;;;;;;24.12;68.27;65534.59;5050169;28;20200;-58
2023/09/07 10:18:45;;;;;;;9.70;5.40;;;;;;;24.14;64.41;65534.78;5049614;28;20768;-56
2023/09/07 10:21:10;;;;;;;6.60;5.50;;;;;;;24.00;66.81;65521.25;5049915;28;20205;-56
2023/09/07 10:23:40;;;;;;;11.43;5.85;;;;;;;24.01;69.33;65517.22;5050077;28;20251;-55
2023/09/07 10:26:21;;;;;;;7.03;5.50;;;;;;;24.00;69.88;65518.69;5050216;28;20239;-56
2023/09/07 10:28:49;;;;;;;6.20;5.50;;;;;;;24.03;67.79;65525.19;5050085;28;20166;-54
2023/09/07 10:31:19;;;;;;;6.65;5.95;;;;;;;24.05;66.17;65527.41;5049809;28;20245;-58
2023/09/07 10:34:17;;;;;;;6.38;5.78;;;;;;;24.22;62.87;65542.56;5034609;28;20217;-55
2023/09/07 10:37:27;;;;;;;6.95;5.85;;;;;;;24.18;70.56;65539.22;5024648;28;20225;-55
2023/09/07 10:39:53;;;;;;;9.68;4.95;;;;;;;24.09;68.18;65531.28;5037658;28;20636;-55
2023/09/07 10:42:25;;;;;;;7.70;5.20;;;;;;;24.36;68.32;65561.19;5053218;28;20240;-55
2023/09/07 10:44:53;;;;;;;9.82;5.00;;;;;;;24.41;68.30;65561.03;5053394;28;20270;-57
2023/09/07 10:47:19;;;;;;;6.35;5.47;;;;;;;24.50;68.71;65571.59;5053413;28;20221;-58
2023/09/07 10:49:45;;;;;;;5.72;5.22;;;;;;;24.61;67.27;65588.94;5053150;28;20300;-55
2023/09/07 10:52:10;;;;;;;6.80;5.72;;;;;;;24.33;63.34;65557.31;5053240;28;20221;-55
2023/09/07 10:54:36;;;;;;;8.55;5.25;;;;;;;24.44;62.54;65569.53;5053156;28;20208;-55
2023/09/07 10:57:09;;;;;;;8.32;5.35;;;;;;;24.30;66.83;65551.97;5053100;28;20209;-55
2023/09/07 10:59:35;;;;;;;7.07;5.32;;;;;;;24.36;63.19;65558.09;5051695;28;20206;-55
2023/09/07 11:02:06;;;;;;;6.47;5.30;;;;;;;24.27;63.10;65548.66;5052886;28;20339;-55
2023/09/07 11:04:32;;;;;;;6.25;5.22;;;;;;;24.18;64.98;65541.25;5052889;28;20636;-55
2023/09/07 11:07:00;;;;;;;8.93;5.80;;;;;;;24.21;62.35;65542.00;5053185;28;20217;-58
2023/09/07 11:09:25;;;;;;;6.85;5.63;;;;;;;24.05;67.09;65522.25;5051580;28;20228;-55
2023/09/07 11:11:51;;;;;;;8.13;5.85;;;;;;;23.81;66.17;65500.22;5052859;28;20218;-56
2023/09/07 11:14:16;;;;;;;6.40;5.28;;;;;;;23.80;69.05;65499.66;5052963;28;20197;-54
2023/09/07 11:16:43;;;;;;;6.80;5.78;;;;;;;23.77;66.80;65495.78;5052683;28;20205;-55
2023/09/07 11:19:09;;;;;;;8.52;5.05;;;;;;;23.71;68.81;65489.13;5052638;28;20202;-56